sensor_id;sensor_type;location;lat;lon;timestamp;pressure;altitude;pressure_sealevel;temperature;humidity
14269;BME280;7218;51.480;7.006;2022-09-12T00:01:38;100957.22;;;17.47;100.00
14269;BME280;7218;51.480;7.006;2022-09-12T00:04:05;100958.56;;;17.34;100.00
14269;BME280;7218;51.480;7.006;2022-09-12T00:06:33;100952.44;;;17.33;100.00
14269;BME280;7218;51.480;7.006;2022-09-12T00:09:03;100947.06;;;17.36;100.00
14269;BME280;7218;51.480;7.006;2022-09-12T00:11:34;100944.75;;;17.27;100.00
14269;BME280;7218;51.480;7.006;2022-09-12T00:14:01;100951.81;;;17.27;100.00
14269;BME280;7218;51.480;7.006;2022-09-12T00:16:29;100948.47;;;17.21;100.00
14269;BME280;7218;51.480;7.006;2022-09-12T00:18:56;100943.41;;;17.15;100.00
14269;BME280;7218;51.480;7.006;2022-09-12T00:21:23;100943.91;;;17.27;100.00
14269;BME280;7218;51.480;7.006;2022-09-12T00:23:50;100936.91;;;17.26;100.00
14269;BME280;7218;51.480;7.006;2022-09-12T00:26:18;100937.38;;;17.37;100.00
14269;BME280;7218;51.480;7.006;2022-09-12T00:28:47;100939.28;;;17.33;100.00
14269;BME280;7218;51.480;7.006;2022-09-12T00:31:15;100930.41;;;17.34;100.00
14269;BME280;7218;51.480;7.006;2022-09-12T00:33:42;100929.00;;;17.26;100.00
14269;BME280;7218;51.480;7.006;2022-09-12T00:36:12;100928.16;;;17.23;100.00
14269;BME280;7218;51.480;7.006;2022-09-12T00:38:40;100922.06;;;17.23;100.00
14269;BME280;7218;51.480;7.006;2022-09-12T00:41:09;100926.69;;;17.16;100.00
14269;BME280;7218;51.480;7.006;2022-09-12T00:43:39;100924.00;;;17.18;100.00
14269;BME280;7218;51.480;7.006;2022-09-12T00:46:15;100920.84;;;17.08;100.00
14269;BME280;7218;51.480;7.006;2022-09-12T00:48:45;100926.16;;;17.07;100.00
14269;BME280;7218;51.480;7.006;2022-09-12T00:51:13;100919.22;;;17.04;100.00
14269;BME280;7218;51.480;7.006;2022-09-12T00:53:40;100922.19;;;16.95;100.00
14269;BME280;7218;51.480;7.006;2022-09-12T00:56:08;100917.66;;;16.99;100.00
14269;BME280;7218;51.480;7.006;2022-09-12T00:58:39;100914.31;;;16.94;100.00
14269;BME280;7218;51.480;7.006;2022-09-12T01:01:09;100910.25;;;16.85;100.00
14269;BME280;7218;51.480;7.006;2022-09-12T01:03:35;100907.81;;;16.79;100.00
14269;BME280;7218;51.480;7.006;2022-09-12T01:06:06;100908.84;;;16.75;100.00
14269;BME280;7218;51.480;7.006;2022-09-12T01:08:35;100910.44;;;16.79;100.00
14269;BME280;7218;51.480;7.006;2022-09-12T01:11:03;100906.22;;;16.75;100.00
14269;BME280;7218;51.480;7.006;2022-09-12T01:13:31;100906.28;;;16.73;100.00
14269;BME280;7218;51.480;7.006;2022-09-12T01:15:57;100904.28;;;16.80;100.00
14269;BME280;7218;51.480;7.006;2022-09-12T01:18:30;100904.47;;;16.74;100.00
14269;BME280;7218;51.480;7.006;2022-09-12T01:21:10;100911.59;;;16.72;100.00
14269;BME280;7218;51.480;7.006;2022-09-12T01:23:55;100905.63;;;16.67;100.00
14269;BME280;7218;51.480;7.006;2022-09-12T01:30:02;100899.50;;;16.66;100.00
14269;BME280;7218;51.480;7.006;2022-09-12T01:32:37;100899.75;;;16.59;100.00
14269;BME280;7218;51.480;7.006;2022-09-12T01:35:14;100906.81;;;16.58;100.00
14269;BME280;7218;51.480;7.006;2022-09-12T01:37:53;100904.25;;;16.54;100.00
14269;BME280;7218;51.480;7.006;2022-09-12T01:40:26;100901.16;;;16.43;100.00
14269;BME280;7218;51.480;7.006;2022-09-12T01:43:03;100901.25;;;16.40;100.00
14269;BME280;7218;51.480;7.006;2022-09-12T01:45:38;100894.88;;;16.47;100.00
14269;BME280;7218;51.480;7.006;2022-09-12T01:48:12;100895.75;;;16.47;100.00
14269;BME280;7218;51.480;7.006;2022-09-12T01:50:47;100889.75;;;16.42;100.00
14269;BME280;7218;51.480;7.006;2022-09-12T01:53:19;100893.84;;;16.51;100.00
14269;BME280;7218;51.480;7.006;2022-09-12T01:55:52;100887.78;;;16.49;100.00
14269;BME280;7218;51.480;7.006;2022-09-12T01:58:23;100886.16;;;16.45;100.00
14269;BME280;7218;51.480;7.006;2022-09-12T02:00:55;100886.97;;;16.47;100.00
14269;BME280;7218;51.480;7.006;2022-09-12T02:03:29;100887.09;;;16.44;100.00
14269;BME280;7218;51.480;7.006;2022-09-12T02:06:00;100886.81;;;16.51;100.00
14269;BME280;7218;51.480;7.006;2022-09-12T02:08:30;100876.75;;;16.38;100.00
14269;BME280;7218;51.480;7.006;2022-09-12T02:11:02;100875.03;;;16.36;100.00
14269;BME280;7218;51.480;7.006;2022-09-12T02:13:34;100872.28;;;16.40;100.00
14269;BME280;7218;51.480;7.006;2022-09-12T02:16:07;100873.00;;;16.45;100.00
14269;BME280;7218;51.480;7.006;2022-09-12T02:18:38;100863.69;;;16.34;100.00
14269;BME280;7218;51.480;7.006;2022-09-12T02:21:07;100866.31;;;16.34;100.00
14269;BME280;7218;51.480;7.006;2022-09-12T02:23:38;100867.69;;;16.20;100.00
14269;BME280;7218;51.480;7.006;2022-09-12T02:26:09;100865.63;;;16.03;100.00
14269;BME280;7218;51.480;7.006;2022-09-12T02:28:40;100865.00;;;15.95;100.00
14269;BME280;7218;51.480;7.006;2022-09-12T02:31:12;100864.91;;;15.98;100.00
14269;BME280;7218;51.480;7.006;2022-09-12T02:33:47;100865.00;;;15.95;100.00
14269;BME280;7218;51.480;7.006;2022-09-12T02:36:27;100858.53;;;16.05;100.00
14269;BME280;7218;51.480;7.006;2022-09-12T02:38:57;100854.25;;;16.03;100.00
14269;BME280;7218;51.480;7.006;2022-09-12T02:41:24;100861.06;;;16.08;100.00
14269;BME280;7218;51.480;7.006;2022-09-12T02:43:52;100851.06;;;15.93;100.00
14269;BME280;7218;51.480;7.006;2022-09-12T02:46:22;100855.25;;;15.99;100.00
14269;BME280;7218;51.480;7.006;2022-09-12T02:48:52;100854.53;;;15.93;100.00
14269;BME280;7218;51.480;7.006;2022-09-12T02:51:20;100851.84;;;15.95;100.00
14269;BME280;7218;51.480;7.006;2022-09-12T02:53:47;100849.88;;;16.02;100.00
14269;BME280;7218;51.480;7.006;2022-09-12T02:56:17;100856.09;;;15.99;100.00
14269;BME280;7218;51.480;7.006;2022-09-12T02:58:46;100847.94;;;15.80;100.00
14269;BME280;7218;51.480;7.006;2022-09-12T03:01:20;100847.22;;;15.75;100.00
14269;BME280;7218;51.480;7.006;2022-09-12T03:04:04;100846.34;;;15.75;100.00
14269;BME280;7218;51.480;7.006;2022-09-12T03:06:38;100846.47;;;15.72;100.00
14269;BME280;7218;51.480;7.006;2022-09-12T03:09:11;100841.03;;;15.78;100.00
14269;BME280;7218;51.480;7.006;2022-09-12T03:11:52;100837.56;;;15.76;100.00
14269;BME280;7218;51.480;7.006;2022-09-12T03:14:30;100840.38;;;15.70;100.00
14269;BME280;7218;51.480;7.006;2022-09-12T03:17:06;100845.44;;;15.76;100.00
14269;BME280;7218;51.480;7.006;2022-09-12T03:19:53;100847.47;;;15.68;100.00
14269;BME280;7218;51.480;7.006;2022-09-12T03:22:27;100844.13;;;15.63;100.00
14269;BME280;7218;51.480;7.006;2022-09-12T03:25:03;100843.22;;;15.64;100.00
14269;BME280;7218;51.480;7.006;2022-09-12T03:27:33;100842.59;;;15.56;100.00
14269;BME280;7218;51.480;7.006;2022-09-12T03:30:03;100842.53;;;15.57;100.00
14269;BME280;7218;51.480;7.006;2022-09-12T03:32:40;100842.50;;;15.59;100.00
14269;BME280;7218;51.480;7.006;2022-09-12T03:35:08;100834.84;;;15.51;100.00
14269;BME280;7218;51.480;7.006;2022-09-12T03:37:35;100839.91;;;15.57;100.00
14269;BME280;7218;51.480;7.006;2022-09-12T03:40:02;100841.72;;;15.55;100.00
14269;BME280;7218;51.480;7.006;2022-09-12T03:42:29;100837.44;;;15.53;100.00
14269;BME280;7218;51.480;7.006;2022-09-12T03:44:55;100839.19;;;15.52;100.00
14269;BME280;7218;51.480;7.006;2022-09-12T03:47:21;100839.53;;;15.40;100.00
14269;BME280;7218;51.480;7.006;2022-09-12T03:49:48;100836.72;;;15.46;100.00
14269;BME280;7218;51.480;7.006;2022-09-12T03:52:16;100835.84;;;15.45;100.00
14269;BME280;7218;51.480;7.006;2022-09-12T03:54:42;100842.22;;;15.38;100.00
14269;BME280;7218;51.480;7.006;2022-09-12T03:57:09;100834.13;;;15.44;100.00
14269;BME280;7218;51.480;7.006;2022-09-12T03:59:35;100833.22;;;15.45;100.00
14269;BME280;7218;51.480;7.006;2022-09-12T04:02:02;100828.34;;;15.33;100.00
14269;BME280;7218;51.480;7.006;2022-09-12T04:04:28;100837.09;;;15.34;100.00
14269;BME280;7218;51.480;7.006;2022-09-12T04:06:55;100827.56;;;15.30;100.00
14269;BME280;7218;51.480;7.006;2022-09-12T04:09:23;100830.00;;;15.36;100.00
14269;BME280;7218;51.480;7.006;2022-09-12T04:11:49;100834.34;;;15.38;100.00
14269;BME280;7218;51.480;7.006;2022-09-12T04:14:16;100831.22;;;15.24;100.00
14269;BME280;7218;51.480;7.006;2022-09-12T04:16:42;100828.59;;;15.24;100.00
14269;BME280;7218;51.480;7.006;2022-09-12T04:19:09;100832.97;;;15.25;100.00
14269;BME280;7218;51.480;7.006;2022-09-12T04:21:36;100829.53;;;15.23;100.00
14269;BME280;7218;51.480;7.006;2022-09-12T04:24:03;100825.22;;;15.21;100.00
14269;BME280;7218;51.480;7.006;2022-09-12T04:26:31;100823.44;;;15.21;100.00
14269;BME280;7218;51.480;7.006;2022-09-12T04:28:58;100825.97;;;15.24;100.00
14269;BME280;7218;51.480;7.006;2022-09-12T04:31:24;100821.59;;;15.25;100.00
14269;BME280;7218;51.480;7.006;2022-09-12T04:33:55;100819.69;;;15.30;100.00
14269;BME280;7218;51.480;7.006;2022-09-12T04:36:23;100816.69;;;15.14;100.00
14269;BME280;7218;51.480;7.006;2022-09-12T04:38:50;100817.47;;;15.16;100.00
14269;BME280;7218;51.480;7.006;2022-09-12T04:41:19;100819.03;;;15.23;100.00
14269;BME280;7218;51.480;7.006;2022-09-12T04:43:51;100818.19;;;15.21;100.00
14269;BME280;7218;51.480;7.006;2022-09-12T04:46:18;100817.44;;;15.18;100.00
14269;BME280;7218;51.480;7.006;2022-09-12T04:48:45;100808.84;;;15.13;100.00
14269;BME280;7218;51.480;7.006;2022-09-12T04:51:13;100807.94;;;15.14;100.00
14269;BME280;7218;51.480;7.006;2022-09-12T04:53:41;100809.53;;;15.19;100.00
14269;BME280;7218;51.480;7.006;2022-09-12T04:56:09;100809.38;;;15.24;100.00
14269;BME280;7218;51.480;7.006;2022-09-12T04:58:37;100806.53;;;15.30;100.00
14269;BME280;7218;51.480;7.006;2022-09-12T05:01:06;100804.63;;;15.35;100.00
14269;BME280;7218;51.480;7.006;2022-09-12T05:03:33;100802.97;;;15.32;100.00
14269;BME280;7218;51.480;7.006;2022-09-12T05:06:01;100801.94;;;15.38;100.00
14269;BME280;7218;51.480;7.006;2022-09-12T05:08:28;100799.13;;;15.44;100.00
14269;BME280;7218;51.480;7.006;2022-09-12T05:10:54;100804.91;;;15.55;100.00
14269;BME280;7218;51.480;7.006;2022-09-12T05:13:21;100795.41;;;15.49;100.00
14269;BME280;7218;51.480;7.006;2022-09-12T05:15:53;100801.09;;;15.65;100.00
14269;BME280;7218;51.480;7.006;2022-09-12T05:18:21;100795.91;;;15.64;100.00
14269;BME280;7218;51.480;7.006;2022-09-12T05:20:48;100790.41;;;15.70;100.00
14269;BME280;7218;51.480;7.006;2022-09-12T05:23:14;100789.44;;;15.74;100.00
14269;BME280;7218;51.480;7.006;2022-09-12T05:25:47;100785.78;;;15.78;100.00
14269;BME280;7218;51.480;7.006;2022-09-12T05:28:13;100792.91;;;15.74;100.00
14269;BME280;7218;51.480;7.006;2022-09-12T05:30:40;100789.22;;;15.80;100.00
14269;BME280;7218;51.480;7.006;2022-09-12T05:33:06;100790.03;;;15.82;100.00
14269;BME280;7218;51.480;7.006;2022-09-12T05:35:34;100787.06;;;15.92;100.00
14269;BME280;7218;51.480;7.006;2022-09-12T05:38:02;100783.75;;;15.86;100.00
14269;BME280;7218;51.480;7.006;2022-09-12T05:40:28;100780.97;;;15.90;100.00
14269;BME280;7218;51.480;7.006;2022-09-12T05:42:55;100786.03;;;15.97;100.00
14269;BME280;7218;51.480;7.006;2022-09-12T05:45:21;100775.19;;;16.06;100.00
14269;BME280;7218;51.480;7.006;2022-09-12T05:47:48;100778.28;;;16.18;100.00
14269;BME280;7218;51.480;7.006;2022-09-12T05:50:15;100785.88;;;16.27;100.00
14269;BME280;7218;51.480;7.006;2022-09-12T05:52:43;100781.09;;;16.39;100.00
14269;BME280;7218;51.480;7.006;2022-09-12T05:55:09;100783.59;;;16.42;100.00
14269;BME280;7218;51.480;7.006;2022-09-12T05:57:36;100782.06;;;16.61;100.00
14269;BME280;7218;51.480;7.006;2022-09-12T06:00:03;100790.41;;;16.73;100.00
14269;BME280;7218;51.480;7.006;2022-09-12T06:02:32;100796.19;;;16.83;100.00
14269;BME280;7218;51.480;7.006;2022-09-12T06:04:58;100798.25;;;16.98;100.00
14269;BME280;7218;51.480;7.006;2022-09-12T06:07:25;100800.59;;;17.06;100.00
14269;BME280;7218;51.480;7.006;2022-09-12T06:09:53;100800.88;;;16.98;100.00
14269;BME280;7218;51.480;7.006;2022-09-12T06:12:20;100806.94;;;17.00;100.00
14269;BME280;7218;51.480;7.006;2022-09-12T06:14:46;100805.72;;;17.09;100.00
14269;BME280;7218;51.480;7.006;2022-09-12T06:17:13;100806.19;;;17.20;100.00
14269;BME280;7218;51.480;7.006;2022-09-12T06:19:40;100811.06;;;17.31;100.00
14269;BME280;7218;51.480;7.006;2022-09-12T06:22:06;100806.34;;;17.39;100.00
14269;BME280;7218;51.480;7.006;2022-09-12T06:24:32;100810.31;;;17.49;100.00
14269;BME280;7218;51.480;7.006;2022-09-12T06:27:00;100801.28;;;17.56;100.00
14269;BME280;7218;51.480;7.006;2022-09-12T06:29:27;100807.34;;;17.58;100.00
14269;BME280;7218;51.480;7.006;2022-09-12T06:31:53;100801.84;;;17.64;100.00
14269;BME280;7218;51.480;7.006;2022-09-12T06:34:20;100809.47;;;17.72;100.00
14269;BME280;7218;51.480;7.006;2022-09-12T06:36:47;100807.25;;;17.83;100.00
14269;BME280;7218;51.480;7.006;2022-09-12T06:39:15;100804.47;;;17.86;100.00
14269;BME280;7218;51.480;7.006;2022-09-12T06:41:42;100804.28;;;17.90;100.00
14269;BME280;7218;51.480;7.006;2022-09-12T06:44:12;100795.53;;;18.10;100.00
14269;BME280;7218;51.480;7.006;2022-09-12T06:46:40;100797.75;;;18.21;100.00
14269;BME280;7218;51.480;7.006;2022-09-12T06:49:07;100799.06;;;18.31;100.00
14269;BME280;7218;51.480;7.006;2022-09-12T06:51:33;100791.41;;;18.45;100.00
14269;BME280;7218;51.480;7.006;2022-09-12T06:54:01;100789.91;;;18.60;100.00
14269;BME280;7218;51.480;7.006;2022-09-12T06:56:28;100799.19;;;18.68;100.00
14269;BME280;7218;51.480;7.006;2022-09-12T06:58:56;100795.09;;;18.81;100.00
14269;BME280;7218;51.480;7.006;2022-09-12T07:01:25;100795.38;;;18.94;100.00
14269;BME280;7218;51.480;7.006;2022-09-12T07:03:54;100796.63;;;19.06;100.00
14269;BME280;7218;51.480;7.006;2022-09-12T07:06:24;100798.13;;;19.11;99.76
14269;BME280;7218;51.480;7.006;2022-09-12T07:08:56;100797.63;;;19.22;99.78
14269;BME280;7218;51.480;7.006;2022-09-12T07:11:24;100800.59;;;19.33;99.20
14269;BME280;7218;51.480;7.006;2022-09-12T07:13:52;100807.19;;;19.43;98.90
14269;BME280;7218;51.480;7.006;2022-09-12T07:16:19;100808.25;;;19.58;98.37
14269;BME280;7218;51.480;7.006;2022-09-12T07:18:50;100803.53;;;19.64;97.64
14269;BME280;7218;51.480;7.006;2022-09-12T07:21:18;100806.69;;;19.72;96.32
14269;BME280;7218;51.480;7.006;2022-09-12T07:23:44;100807.00;;;19.84;96.43
14269;BME280;7218;51.480;7.006;2022-09-12T07:26:13;100808.44;;;19.91;95.45
14269;BME280;7218;51.480;7.006;2022-09-12T07:28:40;100806.25;;;19.99;94.63
14269;BME280;7218;51.480;7.006;2022-09-12T07:31:08;100812.34;;;20.01;94.34
14269;BME280;7218;51.480;7.006;2022-09-12T07:33:36;100805.88;;;20.06;95.03
14269;BME280;7218;51.480;7.006;2022-09-12T07:36:06;100795.28;;;20.06;93.43
14269;BME280;7218;51.480;7.006;2022-09-12T07:38:34;100799.56;;;20.09;93.68
14269;BME280;7218;51.480;7.006;2022-09-12T07:41:09;100792.72;;;20.22;93.64
14269;BME280;7218;51.480;7.006;2022-09-12T07:43:35;100794.19;;;20.28;93.40
14269;BME280;7218;51.480;7.006;2022-09-12T07:46:02;100789.91;;;20.42;93.47
14269;BME280;7218;51.480;7.006;2022-09-12T07:48:28;100792.19;;;20.50;93.44
14269;BME280;7218;51.480;7.006;2022-09-12T07:50:58;100792.63;;;20.58;93.54
14269;BME280;7218;51.480;7.006;2022-09-12T07:53:30;100793.25;;;20.63;91.86
14269;BME280;7218;51.480;7.006;2022-09-12T07:55:57;100789.84;;;20.61;92.16
14269;BME280;7218;51.480;7.006;2022-09-12T07:58:23;100789.53;;;20.83;92.17
14269;BME280;7218;51.480;7.006;2022-09-12T08:00:50;100793.34;;;20.94;91.91
14269;BME280;7218;51.480;7.006;2022-09-12T08:03:16;100798.72;;;20.93;91.61
14269;BME280;7218;51.480;7.006;2022-09-12T08:05:43;100799.78;;;21.06;91.40
14269;BME280;7218;51.480;7.006;2022-09-12T08:08:10;100800.84;;;21.19;90.53
14269;BME280;7218;51.480;7.006;2022-09-12T08:10:38;100803.31;;;21.22;90.23
14269;BME280;7218;51.480;7.006;2022-09-12T08:13:04;100809.06;;;21.15;89.74
14269;BME280;7218;51.480;7.006;2022-09-12T08:15:33;100810.44;;;21.22;90.24
14269;BME280;7218;51.480;7.006;2022-09-12T08:18:00;100813.66;;;21.11;89.31
14269;BME280;7218;51.480;7.006;2022-09-12T08:20:26;100809.34;;;21.26;89.25
14269;BME280;7218;51.480;7.006;2022-09-12T08:22:53;100814.28;;;21.16;88.49
14269;BME280;7218;51.480;7.006;2022-09-12T08:25:19;100809.47;;;21.23;89.25
14269;BME280;7218;51.480;7.006;2022-09-12T08:27:47;100811.88;;;21.27;89.80
14269;BME280;7218;51.480;7.006;2022-09-12T08:30:14;100807.97;;;21.34;89.53
14269;BME280;7218;51.480;7.006;2022-09-12T08:32:40;100807.97;;;21.34;89.15
14269;BME280;7218;51.480;7.006;2022-09-12T08:35:07;100814.22;;;21.49;89.15
14269;BME280;7218;51.480;7.006;2022-09-12T08:37:33;100807.38;;;21.61;87.89
14269;BME280;7218;51.480;7.006;2022-09-12T08:40:00;100800.66;;;21.85;86.51
14269;BME280;7218;51.480;7.006;2022-09-12T08:42:40;100800.69;;;22.15;85.91
14269;BME280;7218;51.480;7.006;2022-09-12T08:45:17;100803.34;;;22.15;86.12
14269;BME280;7218;51.480;7.006;2022-09-12T08:47:45;100800.81;;;22.27;84.35
14269;BME280;7218;51.480;7.006;2022-09-12T08:50:15;100796.78;;;22.36;84.06
14269;BME280;7218;51.480;7.006;2022-09-12T08:52:48;100791.94;;;22.43;83.84
14269;BME280;7218;51.480;7.006;2022-09-12T08:55:25;100796.50;;;22.55;84.03
14269;BME280;7218;51.480;7.006;2022-09-12T08:57:53;100795.00;;;22.65;83.54
14269;BME280;7218;51.480;7.006;2022-09-12T09:00:21;100794.81;;;22.68;82.79
14269;BME280;7218;51.480;7.006;2022-09-12T09:03:03;100797.91;;;22.90;82.25
14269;BME280;7218;51.480;7.006;2022-09-12T09:05:44;100797.00;;;23.18;81.02
14269;BME280;7218;51.480;7.006;2022-09-12T09:08:21;100789.13;;;23.31;79.50
14269;BME280;7218;51.480;7.006;2022-09-12T09:10:57;100798.63;;;23.35;79.25
14269;BME280;7218;51.480;7.006;2022-09-12T09:13:32;100802.31;;;23.46;76.70
14269;BME280;7218;51.480;7.006;2022-09-12T09:16:25;100795.78;;;23.24;73.45
14269;BME280;7218;51.480;7.006;2022-09-12T09:18:56;100796.16;;;23.46;74.02
14269;BME280;7218;51.480;7.006;2022-09-12T09:21:28;100794.41;;;23.59;71.53
14269;BME280;7218;51.480;7.006;2022-09-12T09:24:00;100805.00;;;23.73;69.78
14269;BME280;7218;51.480;7.006;2022-09-12T09:26:37;100802.94;;;23.64;68.57
14269;BME280;7218;51.480;7.006;2022-09-12T09:29:13;100803.41;;;23.71;70.73
14269;BME280;7218;51.480;7.006;2022-09-12T09:31:46;100797.03;;;23.04;71.98
14269;BME280;7218;51.480;7.006;2022-09-12T09:34:17;100791.91;;;23.42;71.67
14269;BME280;7218;51.480;7.006;2022-09-12T09:36:48;100783.19;;;23.54;70.83
14269;BME280;7218;51.480;7.006;2022-09-12T09:39:26;100792.41;;;24.02;71.09
14269;BME280;7218;51.480;7.006;2022-09-12T09:42:10;100782.38;;;24.58;67.75
14269;BME280;7218;51.480;7.006;2022-09-12T09:44:38;100779.09;;;24.54;66.86
14269;BME280;7218;51.480;7.006;2022-09-12T09:47:09;100781.75;;;24.92;64.85
14269;BME280;7218;51.480;7.006;2022-09-12T09:49:37;100788.78;;;24.42;63.63
14269;BME280;7218;51.480;7.006;2022-09-12T09:52:05;100786.66;;;23.95;65.32
14269;BME280;7218;51.480;7.006;2022-09-12T09:54:34;100774.28;;;23.94;66.23
14269;BME280;7218;51.480;7.006;2022-09-12T09:57:01;100770.03;;;24.44;66.26
14269;BME280;7218;51.480;7.006;2022-09-12T09:59:29;100769.38;;;24.66;64.35
14269;BME280;7218;51.480;7.006;2022-09-12T10:01:57;100770.44;;;25.01;62.58
14269;BME280;7218;51.480;7.006;2022-09-12T10:04:30;100768.00;;;25.35;61.82
14269;BME280;7218;51.480;7.006;2022-09-12T10:06:58;100778.13;;;25.79;60.24
14269;BME280;7218;51.480;7.006;2022-09-12T10:09:27;100770.56;;;25.36;56.88
14269;BME280;7218;51.480;7.006;2022-09-12T10:11:55;100762.84;;;24.82;59.12
14269;BME280;7218;51.480;7.006;2022-09-12T10:14:35;100766.31;;;25.34;59.20
14269;BME280;7218;51.480;7.006;2022-09-12T10:17:20;100758.91;;;25.74;57.91
14269;BME280;7218;51.480;7.006;2022-09-12T10:19:49;100754.94;;;26.14;55.44
14269;BME280;7218;51.480;7.006;2022-09-12T10:22:18;100745.44;;;26.45;55.24
14269;BME280;7218;51.480;7.006;2022-09-12T10:24:48;100741.78;;;26.68;55.74
14269;BME280;7218;51.480;7.006;2022-09-12T10:27:19;100743.84;;;27.20;51.44
14269;BME280;7218;51.480;7.006;2022-09-12T10:29:48;100743.59;;;26.56;52.72
14269;BME280;7218;51.480;7.006;2022-09-12T10:32:23;100736.78;;;27.19;50.40
14269;BME280;7218;51.480;7.006;2022-09-12T10:34:57;100732.28;;;27.74;48.49
14269;BME280;7218;51.480;7.006;2022-09-12T10:37:29;100737.28;;;27.13;47.66
14269;BME280;7218;51.480;7.006;2022-09-12T10:39:57;100737.59;;;27.42;48.22
14269;BME280;7218;51.480;7.006;2022-09-12T10:42:44;100735.00;;;28.66;43.95
14269;BME280;7218;51.480;7.006;2022-09-12T10:45:20;100732.06;;;28.18;43.35
14269;BME280;7218;51.480;7.006;2022-09-12T10:47:47;100724.94;;;28.29;41.23
14269;BME280;7218;51.480;7.006;2022-09-12T10:50:27;100725.00;;;29.87;41.67
14269;BME280;7218;51.480;7.006;2022-09-12T10:53:12;100732.19;;;30.25;38.25
14269;BME280;7218;51.480;7.006;2022-09-12T10:55:40;100728.13;;;29.63;38.95
14269;BME280;7218;51.480;7.006;2022-09-12T10:58:23;100731.69;;;29.92;38.54
14269;BME280;7218;51.480;7.006;2022-09-12T11:00:59;100718.44;;;30.47;37.95
14269;BME280;7218;51.480;7.006;2022-09-12T11:03:36;100725.84;;;31.00;36.74
14269;BME280;7218;51.480;7.006;2022-09-12T11:06:09;100726.38;;;30.76;36.63
14269;BME280;7218;51.480;7.006;2022-09-12T11:08:49;100720.84;;;29.35;38.15
14269;BME280;7218;51.480;7.006;2022-09-12T11:11:34;100707.28;;;30.23;39.03
14269;BME280;7218;51.480;7.006;2022-09-12T11:16:58;100704.09;;;31.56;35.30
14269;BME280;7218;51.480;7.006;2022-09-12T11:19:39;100710.00;;;30.04;36.70
14269;BME280;7218;51.480;7.006;2022-09-12T11:22:25;100703.84;;;30.30;36.55
14269;BME280;7218;51.480;7.006;2022-09-12T11:25:14;100708.44;;;29.43;36.67
14269;BME280;7218;51.480;7.006;2022-09-12T11:27:59;100704.63;;;30.13;36.27
14269;BME280;7218;51.480;7.006;2022-09-12T11:30:36;100705.44;;;28.78;38.08
14269;BME280;7218;51.480;7.006;2022-09-12T11:33:28;100694.03;;;30.39;37.06
14269;BME280;7218;51.480;7.006;2022-09-12T11:36:01;100692.44;;;31.20;35.57
14269;BME280;7218;51.480;7.006;2022-09-12T11:38:46;100695.81;;;32.11;33.38
14269;BME280;7218;51.480;7.006;2022-09-12T11:41:20;100692.72;;;32.05;33.23
14269;BME280;7218;51.480;7.006;2022-09-12T11:43:53;100689.69;;;32.86;33.35
14269;BME280;7218;51.480;7.006;2022-09-12T11:46:25;100683.06;;;33.39;32.35
14269;BME280;7218;51.480;7.006;2022-09-12T11:48:58;100689.25;;;32.13;32.96
14269;BME280;7218;51.480;7.006;2022-09-12T11:51:28;100679.56;;;31.14;35.51
14269;BME280;7218;51.480;7.006;2022-09-12T11:54:03;100690.50;;;31.83;33.74
14269;BME280;7218;51.480;7.006;2022-09-12T11:56:33;100685.56;;;32.74;32.57
14269;BME280;7218;51.480;7.006;2022-09-12T11:59:10;100677.03;;;34.09;31.22
14269;BME280;7218;51.480;7.006;2022-09-12T12:01:40;100676.03;;;34.82;29.60
14269;BME280;7218;51.480;7.006;2022-09-12T12:04:11;100676.75;;;34.60;30.62
14269;BME280;7218;51.480;7.006;2022-09-12T12:06:46;100669.94;;;34.64;29.01
14269;BME280;7218;51.480;7.006;2022-09-12T12:09:15;100677.91;;;34.02;29.51
14269;BME280;7218;51.480;7.006;2022-09-12T12:11:44;100669.69;;;34.89;29.80
14269;BME280;7218;51.480;7.006;2022-09-12T12:14:16;100673.28;;;34.02;29.59
14269;BME280;7218;51.480;7.006;2022-09-12T12:16:43;100675.97;;;33.21;29.45
14269;BME280;7218;51.480;7.006;2022-09-12T12:19:31;100662.41;;;34.43;29.44
14269;BME280;7218;51.480;7.006;2022-09-12T12:22:07;100674.81;;;34.29;28.71
14269;BME280;7218;51.480;7.006;2022-09-12T12:24:53;100665.38;;;35.03;28.19
14269;BME280;7218;51.480;7.006;2022-09-12T12:27:43;100664.19;;;35.59;27.63
14269;BME280;7218;51.480;7.006;2022-09-12T12:34:02;100661.84;;;37.26;26.33
14269;BME280;7218;51.480;7.006;2022-09-12T12:36:34;100657.41;;;36.89;26.23
14269;BME280;7218;51.480;7.006;2022-09-12T12:42:58;100638.91;;;35.81;27.69
14269;BME280;7218;51.480;7.006;2022-09-12T12:45:45;100640.84;;;37.20;25.65
14269;BME280;7218;51.480;7.006;2022-09-12T12:48:14;100645.31;;;37.27;25.29
14269;BME280;7218;51.480;7.006;2022-09-12T12:50:41;100641.94;;;36.89;24.31
14269;BME280;7218;51.480;7.006;2022-09-12T12:53:17;100644.66;;;36.89;25.13
14269;BME280;7218;51.480;7.006;2022-09-12T12:55:47;100632.69;;;37.20;24.94
14269;BME280;7218;51.480;7.006;2022-09-12T12:58:27;100626.75;;;37.80;24.16
14269;BME280;7218;51.480;7.006;2022-09-12T13:01:04;100624.16;;;38.62;24.07
14269;BME280;7218;51.480;7.006;2022-09-12T13:03:35;100627.44;;;37.61;23.85
14269;BME280;7218;51.480;7.006;2022-09-12T13:06:05;100622.16;;;38.43;24.27
14269;BME280;7218;51.480;7.006;2022-09-12T13:08:34;100621.34;;;38.96;23.99
14269;BME280;7218;51.480;7.006;2022-09-12T13:11:05;100624.97;;;39.23;22.74
14269;BME280;7218;51.480;7.006;2022-09-12T13:13:37;100615.81;;;39.77;23.27
14269;BME280;7218;51.480;7.006;2022-09-12T13:16:08;100614.22;;;39.02;22.69
14269;BME280;7218;51.480;7.006;2022-09-12T13:18:40;100620.41;;;37.73;23.40
14269;BME280;7218;51.480;7.006;2022-09-12T13:21:11;100615.03;;;37.37;24.03
14269;BME280;7218;51.480;7.006;2022-09-12T13:23:39;100612.53;;;37.57;23.21
14269;BME280;7218;51.480;7.006;2022-09-12T13:26:10;100604.13;;;38.07;23.30
14269;BME280;7218;51.480;7.006;2022-09-12T13:28:39;100600.56;;;38.07;24.22